Time;durP1;ratioP1;P1;durP2;ratioP2;P2;SDS_P1;SDS_P2;PMS_P1;PMS_P2;Temp;Humidity;BMP_temperature;BMP_pressure;BME280_temperature;BME280_humidity;BME280_pressure;Samples;Min_cycle;Max_cycle;Signal;HPM_P1;HPM_P2
2023/07/20 00:00:18;;;;;;;8.75;3.05;;;16.50;54.10;;;;;;4942739;28;20055;-69
2023/07/20 00:02:45;;;;;;;8.13;3.10;;;16.70;53.60;;;;;;4945088;28;20039;-68
2023/07/20 00:05:13;;;;;;;5.25;2.80;;;17.30;52.90;;;;;;4965128;28;20062;-69
2023/07/20 00:07:40;;;;;;;10.25;3.38;;;17.70;51.50;;;;;;4932850;28;20027;-69
2023/07/20 00:10:08;;;;;;;11.63;3.20;;;18.10;49.80;;;;;;4958276;28;20488;-69
2023/07/20 00:12:35;;;;;;;7.78;3.10;;;18.70;48.80;;;;;;4949203;28;20110;-69
2023/07/20 00:15:03;;;;;;;9.68;2.95;;;18.40;48.70;;;;;;4927770;28;20396;-69
2023/07/20 00:17:30;;;;;;;9.18;3.17;;;18.00;50.50;;;;;;4942198;28;20461;-69
2023/07/20 00:19:58;;;;;;;11.00;2.72;;;17.70;50.90;;;;;;4956489;28;20038;-69
2023/07/20 00:22:25;;;;;;;8.93;3.13;;;17.40;51.70;;;;;;4945713;28;20031;-71
2023/07/20 00:24:53;;;;;;;7.60;2.85;;;17.90;51.00;;;;;;4947521;28;20028;-71
2023/07/20 00:27:20;;;;;;;11.57;3.22;;;17.90;50.90;;;;;;4951773;28;20031;-67
2023/07/20 00:29:47;;;;;;;13.45;3.55;;;18.00;49.40;;;;;;4943794;28;20082;-69
2023/07/20 00:32:14;;;;;;;7.60;2.95;;;17.50;49.20;;;;;;4947437;28;20118;-70
2023/07/20 00:34:42;;;;;;;9.52;3.38;;;17.30;52.90;;;;;;4944884;28;20495;-68
2023/07/20 00:37:09;;;;;;;9.65;3.25;;;18.00;48.60;;;;;;4946029;28;20038;-69
2023/07/20 00:39:37;;;;;;;9.60;3.30;;;16.90;50.60;;;;;;4948048;28;20566;-71
2023/07/20 00:42:04;;;;;;;6.45;3.60;;;16.30;51.40;;;;;;4943315;28;20045;-70
2023/07/20 00:44:34;;;;;;;7.93;3.28;;;16.30;52.60;;;;;;4929445;28;20027;-70
2023/07/20 00:47:01;;;;;;;7.40;3.45;;;16.00;53.40;;;;;;4945929;28;20646;-71
2023/07/20 00:49:28;;;;;;;8.25;3.45;;;16.30;53.60;;;;;;4945597;28;20023;-72
2023/07/20 00:52:03;;;;;;;6.90;3.00;;;16.50;53.30;;;;;;4946961;28;20058;-71
2023/07/20 00:54:32;;;;;;;6.68;2.63;;;16.60;50.10;;;;;;4928017;28;20162;-70
2023/07/20 00:57:01;;;;;;;6.07;2.58;;;16.70;50.90;;;;;;4946536;28;20043;-70
2023/07/20 00:59:29;;;;;;;8.20;3.03;;;16.80;51.70;;;;;;4944365;28;20042;-70
2023/07/20 01:01:56;;;;;;;8.35;3.00;;;17.10;52.70;;;;;;4946828;28;20031;-72
2023/07/20 01:04:26;;;;;;;6.47;2.60;;;17.20;50.50;;;;;;4922118;28;20377;-70
2023/07/20 01:07:29;;;;;;;5.65;2.85;;;17.40;50.50;;;;;;4939425;28;20476;-71
2023/07/20 01:10:11;;;;;;;7.47;2.67;;;17.70;48.80;;;;;;4945200;28;20035;-70
2023/07/20 01:12:51;;;;;;;9.25;2.35;;;17.70;50.70;;;;;;4943192;28;20031;-71
2023/07/20 01:15:19;;;;;;;6.10;2.13;;;18.10;47.90;;;;;;4945459;28;20028;-70
2023/07/20 01:17:46;;;;;;;4.97;1.80;;;17.70;48.90;;;;;;4947742;28;20672;-71
2023/07/20 01:20:16;;;;;;;7.30;2.42;;;18.50;47.80;;;;;;4950030;28;20091;-71
2023/07/20 01:23:27;;;;;;;11.13;2.10;;;18.30;47.20;;;;;;4942653;28;20031;-71
2023/07/20 01:26:24;;;;;;;8.20;2.20;;;18.60;47.80;;;;;;4941645;28;20039;-71
2023/07/20 01:28:59;;;;;;;8.45;1.52;;;19.60;45.40;;;;;;4949525;28;20038;-72
2023/07/20 01:31:32;;;;;;;6.45;1.60;;;20.10;46.10;;;;;;4950312;28;20053;-71
2023/07/20 01:34:03;;;;;;;6.05;1.40;;;21.10;42.90;;;;;;4950287;28;20031;-71
2023/07/20 01:36:35;;;;;;;6.78;1.42;;;21.40;42.10;;;;;;4942298;28;20028;-70
2023/07/20 01:39:04;;;;;;;4.40;1.23;;;20.40;43.00;;;;;;4944518;28;20362;-72
2023/07/20 01:41:32;;;;;;;5.43;1.23;;;19.70;44.50;;;;;;4950807;28;20540;-70
2023/07/20 01:43:59;;;;;;;5.95;1.58;;;19.50;44.60;;;;;;4949534;28;20098;-72
2023/07/20 01:46:27;;;;;;;6.03;1.35;;;19.10;45.50;;;;;;4951257;28;20035;-70
2023/07/20 01:48:54;;;;;;;4.10;1.40;;;19.30;45.20;;;;;;4947664;28;20146;-70
2023/07/20 01:51:22;;;;;;;5.55;0.90;;;19.60;44.70;;;;;;4944859;28;20101;-69
2023/07/20 01:53:49;;;;;;;5.35;1.38;;;19.70;45.40;;;;;;4950371;28;20440;-72
2023/07/20 01:56:17;;;;;;;6.00;1.10;;;20.30;44.70;;;;;;4945245;28;20421;-70
2023/07/20 01:58:44;;;;;;;9.18;1.27;;;20.80;43.70;;;;;;4949736;28;20026;-71
2023/07/20 02:01:11;;;;;;;8.38;1.40;;;20.80;44.20;;;;;;4948743;28;20106;-70
2023/07/20 02:03:39;;;;;;;4.38;1.15;;;21.00;43.70;;;;;;4945813;28;20039;-71
2023/07/20 02:06:06;;;;;;;3.45;0.90;;;21.30;43.30;;;;;;4937741;28;20192;-68
2023/07/20 02:08:33;;;;;;;6.03;1.45;;;21.00;42.50;;;;;;4947501;28;20030;-69
2023/07/20 02:11:01;;;;;;;6.22;1.25;;;21.20;42.40;;;;;;4949893;28;20105;-67
2023/07/20 02:13:28;;;;;;;3.97;1.35;;;21.10;41.70;;;;;;4946911;28;20095;-67
2023/07/20 02:15:55;;;;;;;5.75;1.20;;;21.10;41.90;;;;;;4942825;28;20030;-68
2023/07/20 02:18:23;;;;;;;6.57;1.45;;;20.90;42.40;;;;;;4951982;28;20107;-68
2023/07/20 02:20:52;;;;;;;6.53;1.20;;;20.80;43.40;;;;;;4949042;28;20039;-68
2023/07/20 02:23:20;;;;;;;3.33;1.27;;;20.70;42.90;;;;;;4945859;28;20035;-67
2023/07/20 02:25:47;;;;;;;4.28;1.00;;;20.30;43.10;;;;;;4931159;28;20182;-68
2023/07/20 02:28:15;;;;;;;5.95;1.00;;;20.00;43.60;;;;;;4950233;28;20967;-67
2023/07/20 02:30:43;;;;;;;3.10;1.00;;;20.10;44.20;;;;;;4944368;28;20489;-68
2023/07/20 02:33:10;;;;;;;3.20;0.80;;;20.50;43.50;;;;;;4946215;28;20549;-69
2023/07/20 02:35:37;;;;;;;4.63;0.98;;;20.20;43.50;;;;;;4941673;28;20381;-68
2023/07/20 02:38:06;;;;;;;4.90;1.65;;;20.60;43.50;;;;;;4944591;28;20027;-68
2023/07/20 02:40:34;;;;;;;4.18;0.88;;;20.70;42.30;;;;;;4942206;28;20094;-68
2023/07/20 02:43:01;;;;;;;3.78;1.08;;;20.80;41.90;;;;;;4945380;28;20045;-68
2023/07/20 02:45:28;;;;;;;4.57;1.02;;;20.80;42.30;;;;;;4939555;28;20354;-69
2023/07/20 02:47:56;;;;;;;3.00;0.88;;;20.60;43.00;;;;;;4946170;28;20041;-69
2023/07/20 02:50:31;;;;;;;2.33;0.70;;;20.10;43.40;;;;;;4955262;28;20039;-68
2023/07/20 02:52:59;;;;;;;2.50;0.90;;;20.40;42.40;;;;;;4950434;28;20061;-69
2023/07/20 02:55:26;;;;;;;5.05;1.15;;;20.10;42.70;;;;;;4940186;28;20540;-69
2023/07/20 02:57:54;;;;;;;3.63;0.93;;;20.50;42.60;;;;;;4945920;28;20078;-67
2023/07/20 03:00:23;;;;;;;5.03;1.02;;;20.60;41.90;;;;;;4948961;28;20488;-67
2023/07/20 03:02:55;;;;;;;5.05;1.35;;;20.30;42.50;;;;;;4947784;28;20016;-67
2023/07/20 03:05:27;;;;;;;3.45;1.20;;;20.60;42.00;;;;;;4949353;28;20041;-69
2023/07/20 03:07:55;;;;;;;2.38;0.95;;;20.40;42.70;;;;;;4950748;28;20027;-68
2023/07/20 03:10:23;;;;;;;3.85;0.80;;;20.60;42.00;;;;;;4947102;28;20051;-68
2023/07/20 03:12:50;;;;;;;4.43;0.80;;;20.60;42.70;;;;;;4948200;28;20436;-68
2023/07/20 03:15:17;;;;;;;2.80;1.05;;;20.60;41.50;;;;;;4944540;28;20097;-68
2023/07/20 03:17:45;;;;;;;4.90;1.02;;;20.70;40.40;;;;;;4949181;28;20035;-68
2023/07/20 03:20:12;;;;;;;2.92;0.80;;;20.70;40.10;;;;;;4946077;28;20023;-68
2023/07/20 03:22:41;;;;;;;5.20;0.80;;;20.40;41.10;;;;;;4929841;28;20401;-69
2023/07/20 03:25:09;;;;;;;3.40;0.82;;;20.50;41.30;;;;;;4931589;28;20500;-66
2023/07/20 03:27:36;;;;;;;4.13;0.90;;;20.30;41.20;;;;;;4947820;28;20117;-70
2023/07/20 03:30:05;;;;;;;3.38;0.90;;;20.10;41.80;;;;;;4960221;28;20389;-70
2023/07/20 03:32:33;;;;;;;6.30;0.90;;;20.10;40.40;;;;;;4940328;28;20038;-69
2023/07/20 03:35:03;;;;;;;3.83;0.73;;;19.90;41.10;;;;;;4940880;28;20057;-70
2023/07/20 03:37:31;;;;;;;3.42;0.70;;;19.50;41.80;;;;;;4943514;28;20042;-70
2023/07/20 03:39:58;;;;;;;3.38;0.65;;;19.50;42.20;;;;;;4944940;28;20023;-70
2023/07/20 03:42:26;;;;;;;2.92;0.70;;;19.30;42.00;;;;;;4947089;28;20150;-71
2023/07/20 03:44:53;;;;;;;3.58;0.90;;;19.10;43.10;;;;;;4929804;28;20031;-70
2023/07/20 03:47:20;;;;;;;4.90;1.27;;;18.90;43.50;;;;;;4933699;28;20366;-70
2023/07/20 03:49:48;;;;;;;2.45;0.60;;;19.00;43.10;;;;;;4961456;28;20097;-69
2023/07/20 03:52:15;;;;;;;1.85;0.65;;;18.90;43.50;;;;;;4949039;28;20142;-71
2023/07/20 03:54:44;;;;;;;3.63;0.82;;;19.00;43.40;;;;;;4941622;28;20428;-69
2023/07/20 03:57:12;;;;;;;2.45;0.60;;;18.70;44.10;;;;;;4952317;28;20076;-71
2023/07/20 03:59:45;;;;;;;2.08;0.55;;;18.70;45.00;;;;;;4945079;28;20757;-70
2023/07/20 04:02:12;;;;;;;3.00;0.82;;;18.50;44.30;;;;;;4944942;28;20520;-70
2023/07/20 04:04:40;;;;;;;4.55;0.82;;;18.50;44.50;;;;;;4946138;28;20122;-69
2023/07/20 04:07:08;;;;;;;4.68;0.82;;;18.40;45.10;;;;;;4944912;28;20049;-70
2023/07/20 04:09:35;;;;;;;6.65;0.80;;;18.00;45.10;;;;;;4944595;28;20049;-71
2023/07/20 04:12:02;;;;;;;2.70;0.57;;;18.00;45.30;;;;;;4946879;28;20496;-71
2023/07/20 04:14:30;;;;;;;2.22;0.70;;;18.00;45.90;;;;;;4941898;28;20027;-70
2023/07/20 04:16:57;;;;;;;3.47;0.70;;;18.10;45.30;;;;;;4941723;28;20031;-70
2023/07/20 04:19:24;;;;;;;4.43;0.88;;;18.20;45.50;;;;;;4940561;28;20027;-70
2023/07/20 04:21:52;;;;;;;5.90;1.08;;;18.20;45.30;;;;;;4944248;28;20038;-71
2023/07/20 04:24:19;;;;;;;4.22;0.85;;;18.20;45.50;;;;;;4942715;28;20030;-71
2023/07/20 04:26:46;;;;;;;3.78;0.90;;;18.20;45.20;;;;;;4945651;28;20026;-70
2023/07/20 04:29:13;;;;;;;2.95;0.85;;;18.10;45.10;;;;;;4942392;28;20067;-70
2023/07/20 04:31:41;;;;;;;4.05;0.60;;;18.00;45.40;;;;;;4943515;28;20050;-71
2023/07/20 04:34:08;;;;;;;4.18;0.60;;;18.00;45.20;;;;;;4943716;28;20416;-71
2023/07/20 04:36:35;;;;;;;6.70;0.98;;;18.10;44.80;;;;;;4945264;28;20030;-70
2023/07/20 04:39:04;;;;;;;3.55;0.75;;;18.00;44.70;;;;;;4944355;28;20393;-70
2023/07/20 04:41:32;;;;;;;9.57;0.90;;;18.10;45.00;;;;;;4942777;28;20031;-71
2023/07/20 04:43:59;;;;;;;2.58;1.00;;;18.00;44.80;;;;;;4943046;28;20035;-71
2023/07/20 04:46:26;;;;;;;3.45;0.90;;;17.90;45.30;;;;;;4942838;28;20089;-71
2023/07/20 04:48:54;;;;;;;3.85;1.10;;;17.90;45.00;;;;;;4953540;28;20074;-70
2023/07/20 04:51:22;;;;;;;5.75;1.17;;;18.10;44.60;;;;;;4950938;28;20051;-70
2023/07/20 04:53:50;;;;;;;6.60;1.05;;;18.10;43.90;;;;;;4950456;28;20074;-70
2023/07/20 04:56:17;;;;;;;3.75;1.00;;;18.10;44.00;;;;;;4949028;28;20065;-70
2023/07/20 04:58:45;;;;;;;4.95;1.10;;;18.20;43.70;;;;;;4947099;28;20149;-70
2023/07/20 05:01:12;;;;;;;3.17;0.77;;;18.10;42.60;;;;;;4948884;28;20110;-70
2023/07/20 05:03:39;;;;;;;5.38;0.93;;;18.10;43.10;;;;;;4934475;28;20126;-70
2023/07/20 05:06:07;;;;;;;4.10;0.57;;;18.00;43.20;;;;;;4946194;28;20105;-70
2023/07/20 05:08:34;;;;;;;2.47;0.70;;;18.10;42.70;;;;;;4944294;28;20042;-70
2023/07/20 05:11:02;;;;;;;2.28;0.63;;;18.00;43.00;;;;;;4945532;28;20039;-70
2023/07/20 05:13:29;;;;;;;4.30;0.55;;;18.00;42.70;;;;;;4944505;28;20023;-68
2023/07/20 05:15:56;;;;;;;4.00;0.55;;;18.00;43.10;;;;;;4946095;28;20373;-70
2023/07/20 05:18:24;;;;;;;1.42;0.25;;;18.00;43.00;;;;;;4939660;28;20078;-69
2023/07/20 05:20:52;;;;;;;4.82;0.70;;;18.20;41.80;;;;;;4944358;28;20110;-70
2023/07/20 05:23:20;;;;;;;3.38;0.63;;;18.30;41.20;;;;;;4952053;28;20127;-70
2023/07/20 05:25:47;;;;;;;1.23;0.40;;;18.20;41.00;;;;;;4945185;28;20054;-69
2023/07/20 05:28:15;;;;;;;1.50;0.50;;;18.10;42.00;;;;;;4946771;28;20039;-70
2023/07/20 05:30:42;;;;;;;1.85;0.52;;;18.00;42.30;;;;;;4944005;28;20039;-69
2023/07/20 05:33:09;;;;;;;4.47;0.70;;;18.10;42.50;;;;;;4938947;28;20039;-71
2023/07/20 05:35:37;;;;;;;2.30;0.38;;;18.40;42.00;;;;;;4939982;28;20032;-70
2023/07/20 05:38:06;;;;;;;4.13;0.73;;;18.50;42.10;;;;;;4944885;28;20042;-69
2023/07/20 05:40:33;;;;;;;1.67;0.57;;;18.40;41.70;;;;;;4947915;28;20134;-70
2023/07/20 05:43:01;;;;;;;1.80;0.30;;;18.30;41.40;;;;;;4942135;28;20035;-70
2023/07/20 05:45:28;;;;;;;0.68;0.38;;;18.30;41.70;;;;;;4942783;28;20023;-69
2023/07/20 05:47:56;;;;;;;2.15;0.40;;;18.20;41.90;;;;;;4944433;28;20086;-70
2023/07/20 05:50:23;;;;;;;1.75;0.60;;;18.50;41.60;;;;;;4944705;28;20051;-72
2023/07/20 05:52:54;;;;;;;2.75;0.60;;;18.50;41.30;;;;;;4946880;28;20034;-72
2023/07/20 05:55:21;;;;;;;5.13;0.50;;;18.40;41.40;;;;;;4952030;28;20030;-70
2023/07/20 05:57:49;;;;;;;1.50;0.50;;;18.40;41.90;;;;;;4946834;28;20047;-71
2023/07/20 06:00:19;;;;;;;2.55;1.23;;;18.60;41.90;;;;;;4945801;28;20031;-69
2023/07/20 06:02:47;;;;;;;1.25;0.40;;;18.40;42.20;;;;;;4944213;28;20050;-68
2023/07/20 06:05:15;;;;;;;5.22;0.63;;;18.40;41.90;;;;;;4951060;28;20154;-71
2023/07/20 06:07:42;;;;;;;2.92;0.70;;;18.70;41.70;;;;;;4950644;28;20507;-70
2023/07/20 06:10:10;;;;;;;4.85;0.60;;;18.70;41.80;;;;;;4955442;28;20042;-71
2023/07/20 06:12:37;;;;;;;1.65;0.60;;;18.60;42.80;;;;;;4944939;28;20039;-70
2023/07/20 06:15:06;;;;;;;1.77;0.60;;;18.70;42.10;;;;;;4926908;28;20035;-68
2023/07/20 06:17:34;;;;;;;2.85;0.50;;;18.60;42.10;;;;;;4938621;28;20396;-70
2023/07/20 06:20:01;;;;;;;2.95;0.52;;;18.60;43.00;;;;;;4941663;28;20105;-70
2023/07/20 06:22:29;;;;;;;1.98;0.50;;;18.90;41.40;;;;;;4943407;28;20031;-68
2023/07/20 06:24:56;;;;;;;3.00;0.82;;;18.80;41.80;;;;;;4944420;28;20062;-70
2023/07/20 06:27:24;;;;;;;2.03;0.50;;;18.90;41.30;;;;;;4946827;28;20058;-69
2023/07/20 06:29:51;;;;;;;1.98;0.60;;;19.00;40.60;;;;;;4949688;28;20392;-71
2023/07/20 06:32:18;;;;;;;3.40;0.75;;;18.80;41.40;;;;;;4940262;28;20042;-70
2023/07/20 06:34:47;;;;;;;1.67;0.55;;;18.80;41.50;;;;;;4939773;28;20114;-69
2023/07/20 06:37:14;;;;;;;2.05;0.60;;;18.80;41.70;;;;;;4945567;28;20038;-70
2023/07/20 06:39:41;;;;;;;2.38;0.70;;;18.60;41.40;;;;;;4943682;28;20027;-70
2023/07/20 06:42:09;;;;;;;2.65;0.82;;;18.40;42.10;;;;;;4948546;28;20042;-70
2023/07/20 06:44:36;;;;;;;2.72;0.68;;;18.20;42.20;;;;;;4939854;28;20085;-71
2023/07/20 06:47:03;;;;;;;6.95;0.88;;;18.00;42.10;;;;;;4943550;28;20421;-69
2023/07/20 06:49:31;;;;;;;4.10;1.00;;;17.80;42.70;;;;;;4949012;28;20035;-70
2023/07/20 06:51:58;;;;;;;1.67;0.80;;;17.50;43.30;;;;;;4943710;28;20039;-70
2023/07/20 06:54:26;;;;;;;1.80;0.73;;;17.30;43.80;;;;;;4940650;28;20058;-70
2023/07/20 06:56:53;;;;;;;4.05;0.98;;;17.00;45.00;;;;;;4947000;28;20157;-70
2023/07/20 06:59:21;;;;;;;4.32;0.68;;;16.80;45.40;;;;;;4944579;28;20042;-70
2023/07/20 07:01:48;;;;;;;3.28;0.90;;;16.60;46.70;;;;;;4947970;28;20046;-70
2023/07/20 07:04:15;;;;;;;2.03;0.80;;;16.40;46.00;;;;;;4943504;28;20035;-70
2023/07/20 07:06:44;;;;;;;1.80;0.90;;;16.30;46.80;;;;;;4947694;28;20027;-70
2023/07/20 07:09:11;;;;;;;3.50;1.10;;;16.00;48.80;;;;;;4936573;28;20817;-70
2023/07/20 07:11:39;;;;;;;5.43;1.10;;;15.90;47.40;;;;;;4946035;28;20065;-70
2023/07/20 07:14:06;;;;;;;4.60;1.52;;;15.80;48.10;;;;;;4944225;28;20024;-69
2023/07/20 07:16:33;;;;;;;6.78;1.58;;;15.60;48.20;;;;;;4945906;28;20035;-69
2023/07/20 07:19:01;;;;;;;6.85;1.10;;;15.50;48.60;;;;;;4941844;28;20106;-68
2023/07/20 07:21:29;;;;;;;4.15;1.30;;;15.50;48.20;;;;;;4945886;28;20015;-68
2023/07/20 07:23:57;;;;;;;6.25;1.20;;;15.30;48.40;;;;;;4950587;28;20551;-69
2023/07/20 07:26:25;;;;;;;5.13;1.15;;;15.30;48.50;;;;;;4944747;28;20073;-68
2023/07/20 07:28:52;;;;;;;5.22;1.25;;;15.20;48.70;;;;;;4944709;28;20473;-69
2023/07/20 07:31:20;;;;;;;6.50;1.48;;;15.00;49.70;;;;;;4946529;28;20040;-69
2023/07/20 07:33:48;;;;;;;3.35;1.30;;;14.90;49.50;;;;;;4941391;28;20107;-68
2023/07/20 07:36:15;;;;;;;7.38;1.95;;;14.70;50.50;;;;;;4931950;28;21968;-68
2023/07/20 07:38:43;;;;;;;7.35;1.70;;;14.50;50.70;;;;;;4943707;28;20386;-68
2023/07/20 07:41:10;;;;;;;5.07;1.20;;;14.40;50.70;;;;;;4963196;28;20039;-68
2023/07/20 07:43:38;;;;;;;4.32;1.50;;;14.20;51.80;;;;;;4945760;28;20031;-68
2023/07/20 07:46:09;;;;;;;5.40;1.80;;;14.00;52.30;;;;;;4941650;28;20071;-69
2023/07/20 07:48:36;;;;;;;4.35;1.63;;;13.90;53.40;;;;;;4946030;28;20054;-70
2023/07/20 07:51:03;;;;;;;5.55;1.85;;;13.80;54.00;;;;;;4943236;28;20046;-70
2023/07/20 07:53:32;;;;;;;5.28;1.75;;;13.60;53.90;;;;;;4944546;28;20037;-69
2023/07/20 07:56:00;;;;;;;7.22;1.70;;;13.40;54.60;;;;;;4942020;28;20034;-69
2023/07/20 07:58:27;;;;;;;3.65;1.35;;;13.30;55.10;;;;;;4949769;28;20050;-68
2023/07/20 08:00:55;;;;;;;6.25;1.52;;;13.10;55.70;;;;;;4940913;28;20028;-69
2023/07/20 08:03:24;;;;;;;4.65;2.33;;;12.90;55.90;;;;;;4947551;28;20023;-69
2023/07/20 08:05:51;;;;;;;14.40;2.35;;;12.90;55.70;;;;;;4944558;28;20321;-70
2023/07/20 08:08:19;;;;;;;3.70;1.85;;;12.80;57.20;;;;;;4948528;28;20062;-67
2023/07/20 08:10:47;;;;;;;9.77;3.40;;;12.80;57.40;;;;;;4948704;28;20043;-68
2023/07/20 08:13:14;;;;;;;7.20;2.65;;;12.60;56.90;;;;;;4952152;28;20054;-69
2023/07/20 08:15:49;;;;;;;6.75;3.20;;;12.60;57.80;;;;;;4964915;28;20437;-69
2023/07/20 08:18:16;;;;;;;6.40;3.25;;;12.40;57.90;;;;;;4930068;28;20039;-70
2023/07/20 08:20:49;;;;;;;;;;;12.40;58.10;;;;;;4946601;28;20125;-69
2023/07/20 08:23:16;;;;;;;8.05;3.50;;;12.50;57.20;;;;;;4949016;28;19953;-69
2023/07/20 08:25:43;;;;;;;9.70;4.00;;;12.40;57.20;;;;;;4947376;28;20024;-69
2023/07/20 08:28:11;;;;;;;;;;;12.50;56.80;;;;;;4944348;28;20050;-69
2023/07/20 08:30:42;;;;;;;11.48;5.32;;;12.60;56.20;;;;;;4945128;28;19926;-70
2023/07/20 08:33:11;;;;;;;21.70;7.20;;;12.60;56.10;;;;;;4947353;28;20489;-69
2023/07/20 08:35:38;;;;;;;35.92;16.13;;;12.70;56.30;;;;;;4946064;28;20027;-68
2023/07/20 08:38:07;;;;;;;36.08;14.32;;;12.70;56.50;;;;;;4942156;28;20039;-69
2023/07/20 08:40:42;;;;;;;37.15;15.80;;;12.70;56.90;;;;;;4943377;28;20110;-69
2023/07/20 08:43:13;;;;;;;40.83;16.15;;;12.70;57.80;;;;;;4945168;28;20050;-69
2023/07/20 08:45:42;;;;;;;30.20;13.93;;;12.60;58.50;;;;;;4946393;28;20038;-69
2023/07/20 08:48:12;;;;;;;27.42;13.38;;;12.40;59.40;;;;;;4951302;28;20031;-67
2023/07/20 08:50:40;;;;;;;25.48;11.13;;;12.30;60.10;;;;;;4944617;28;20038;-69
2023/07/20 08:53:09;;;;;;;17.75;7.55;;;12.10;60.40;;;;;;4935866;28;20055;-69
2023/07/20 08:55:36;;;;;;;23.67;9.88;;;12.00;60.80;;;;;;4949592;28;20058;-70
2023/07/20 08:58:06;;;;;;;22.80;10.32;;;11.90;61.80;;;;;;4966941;28;20505;-68
2023/07/20 09:00:33;;;;;;;23.45;10.77;;;11.70;62.10;;;;;;4952483;28;20397;-68
2023/07/20 09:03:04;;;;;;;27.85;12.10;;;11.60;62.50;;;;;;4951104;28;20030;-68
2023/07/20 09:05:32;;;;;;;30.88;11.90;;;11.50;63.40;;;;;;4948462;28;20409;-69
2023/07/20 09:07:59;;;;;;;23.20;11.25;;;11.50;63.60;;;;;;4944022;28;20030;-67
2023/07/20 09:10:27;;;;;;;18.83;9.13;;;11.40;64.20;;;;;;4944260;28;20035;-68
2023/07/20 09:12:55;;;;;;;18.20;8.75;;;11.20;64.70;;;;;;4950518;28;20572;-68
2023/07/20 09:15:23;;;;;;;23.75;8.68;;;11.00;65.40;;;;;;4945432;28;20034;-69
2023/07/20 09:17:53;;;;;;;14.73;7.22;;;10.90;66.60;;;;;;4944839;28;20023;-67
2023/07/20 09:20:21;;;;;;;15.52;6.10;;;10.90;66.00;;;;;;4929491;28;20031;-67
2023/07/20 09:22:49;;;;;;;19.77;8.55;;;11.00;65.80;;;;;;4943882;28;20047;-68
2023/07/20 09:25:22;;;;;;;19.33;8.00;;;11.30;65.30;;;;;;4950334;28;20031;-68
2023/07/20 09:27:50;;;;;;;17.52;7.80;;;11.40;65.30;;;;;;4964499;28;20027;-68
2023/07/20 09:30:18;;;;;;;15.70;6.72;;;11.30;65.10;;;;;;4950444;28;20043;-68
2023/07/20 09:32:50;;;;;;;12.38;7.40;;;11.20;65.00;;;;;;4949331;28;20114;-68
2023/07/20 09:35:22;;;;;;;16.48;7.32;;;11.10;65.10;;;;;;4942515;28;20100;-68
2023/07/20 09:37:58;;;;;;;15.40;7.03;;;11.00;64.70;;;;;;4954078;28;20027;-67
2023/07/20 09:40:29;;;;;;;15.13;6.82;;;11.00;64.20;;;;;;4964294;28;20524;-69
2023/07/20 09:43:00;;;;;;;12.02;5.43;;;11.60;57.40;;;;;;4953512;28;20373;-68
2023/07/20 09:45:59;;;;;;;10.95;4.63;;;12.20;54.70;;;;;;4949306;28;20152;-67
2023/07/20 09:48:26;;;;;;;8.82;5.07;;;12.60;52.30;;;;;;4949077;28;20035;-67
2023/07/20 09:50:55;;;;;;;9.40;4.47;;;12.90;51.50;;;;;;4952120;28;20039;-69
2023/07/20 09:53:24;;;;;;;10.07;4.18;;;13.00;49.80;;;;;;4948454;28;20501;-69
2023/07/20 09:55:54;;;;;;;8.75;4.43;;;13.20;49.00;;;;;;4952900;28;20500;-69
2023/07/20 09:58:22;;;;;;;6.80;3.75;;;13.30;49.40;;;;;;4953498;28;20493;-69
2023/07/20 10:00:57;;;;;;;6.72;3.63;;;13.10;49.00;;;;;;4948787;28;20546;-69
2023/07/20 10:03:30;;;;;;;6.75;3.40;;;13.00;48.90;;;;;;4955646;28;20039;-68
2023/07/20 10:06:09;;;;;;;8.70;4.05;;;13.00;48.80;;;;;;4948805;28;20059;-69
2023/07/20 10:08:41;;;;;;;8.02;4.60;;;12.70;50.10;;;;;;4949990;28;20038;-70
2023/07/20 10:11:12;;;;;;;10.60;4.97;;;12.40;51.00;;;;;;4954142;28;20050;-70
2023/07/20 10:13:41;;;;;;;16.73;6.07;;;12.20;50.80;;;;;;4948682;28;20023;-72
2023/07/20 10:16:13;;;;;;;8.52;4.32;;;12.20;50.40;;;;;;4951777;28;20038;-69
2023/07/20 10:19:15;;;;;;;9.73;4.03;;;12.10;50.10;;;;;;4947990;28;20023;-68
2023/07/20 10:21:51;;;;;;;7.45;4.10;;;12.10;50.30;;;;;;4930068;28;20050;-69
2023/07/20 10:24:20;;;;;;;9.27;4.55;;;12.00;50.30;;;;;;4949241;28;20474;-69
2023/07/20 10:26:47;;;;;;;7.97;4.18;;;11.90;50.80;;;;;;4966153;28;20047;-70
2023/07/20 10:29:15;;;;;;;10.98;4.90;;;11.70;52.00;;;;;;4937350;28;20039;-69
2023/07/20 10:31:44;;;;;;;7.50;3.83;;;11.60;52.60;;;;;;4964356;28;20839;-69
2023/07/20 10:34:12;;;;;;;7.13;4.20;;;11.40;53.70;;;;;;4946943;28;20126;-69
2023/07/20 10:36:52;;;;;;;9.63;4.45;;;11.20;54.00;;;;;;4951295;28;20023;-69
2023/07/20 10:39:27;;;;;;;8.90;4.05;;;11.10;54.40;;;;;;4944658;28;20039;-69
2023/07/20 10:42:10;;;;;;;9.88;4.28;;;11.10;55.00;;;;;;4950352;28;20133;-69
2023/07/20 10:44:41;;;;;;;11.98;4.70;;;10.90;55.30;;;;;;4945639;28;20039;-68
2023/07/20 10:47:13;;;;;;;8.32;4.30;;;10.90;54.80;;;;;;4944977;28;20046;-69
2023/07/20 10:50:00;;;;;;;10.48;4.28;;;10.80;55.60;;;;;;4946888;28;20023;-69
2023/07/20 10:52:37;;;;;;;8.88;3.50;;;10.90;54.00;;;;;;4949984;28;20122;-69
2023/07/20 10:55:17;;;;;;;6.90;3.67;;;10.90;53.20;;;;;;4943977;28;20469;-69
2023/07/20 10:58:06;;;;;;;9.55;3.60;;;11.30;51.80;;;;;;4943595;28;20413;-70
2023/07/20 11:00:32;;;;;;;;;;;11.40;51.40;;;;;;4926497;28;20175;-69
2023/07/20 11:03:00;;;;;;;9.98;5.00;;;11.30;51.80;;;;;;4948193;28;19914;-68
2023/07/20 11:05:40;;;;;;;8.23;4.38;;;11.30;52.00;;;;;;4943981;28;20035;-70
2023/07/20 11:08:11;;;;;;;5.93;2.75;;;11.40;51.60;;;;;;4948360;28;20046;-70
2023/07/20 11:10:40;;;;;;;6.20;2.67;;;11.90;49.20;;;;;;4947444;28;20489;-70
2023/07/20 11:13:21;;;;;;;4.07;2.60;;;12.10;48.20;;;;;;4943808;28;20027;-70
2023/07/20 11:15:59;;;;;;;10.05;2.70;;;12.10;48.40;;;;;;4945323;28;20027;-70
2023/07/20 11:18:30;;;;;;;6.50;3.70;;;11.80;48.50;;;;;;4946905;28;20023;-70
2023/07/20 11:20:58;;;;;;;7.40;4.07;;;11.90;50.70;;;;;;4941785;28;20031;-70
2023/07/20 11:23:26;;;;;;;8.43;3.75;;;11.90;51.40;;;;;;4950575;28;20069;-70
2023/07/20 11:25:53;;;;;;;6.88;4.40;;;11.70;51.40;;;;;;4936202;28;20137;-70
2023/07/20 11:28:20;;;;;;;;;;;11.40;50.80;;;;;;4942909;28;20027;-69
2023/07/20 11:30:53;;;;;;;6.43;3.25;;;11.40;48.90;;;;;;4935955;28;19950;-69
2023/07/20 11:33:20;;;;;;;6.93;3.53;;;11.40;50.40;;;;;;4946439;28;20032;-71
2023/07/20 11:35:50;;;;;;;;;;;11.40;51.50;;;;;;4943690;28;20386;-69
2023/07/20 11:38:18;;;;;;;8.43;3.35;;;11.40;50.00;;;;;;4945253;28;19917;-70
2023/07/20 11:40:46;;;;;;;8.73;3.47;;;11.30;50.70;;;;;;4947137;28;20627;-71
2023/07/20 11:43:14;;;;;;;6.10;2.88;;;11.10;51.00;;;;;;4947290;28;20062;-70
2023/07/20 11:45:42;;;;;;;4.72;2.55;;;10.90;51.70;;;;;;4948058;28;20035;-67
2023/07/20 11:48:16;;;;;;;6.03;2.92;;;11.00;51.90;;;;;;4946570;28;20067;-68
2023/07/20 11:50:44;;;;;;;7.50;2.92;;;10.90;52.60;;;;;;4945852;28;20489;-67
2023/07/20 11:53:12;;;;;;;6.68;2.60;;;10.60;53.80;;;;;;4948502;28;20485;-67
2023/07/20 11:55:41;;;;;;;12.73;3.38;;;10.40;54.00;;;;;;4952578;28;20377;-68
2023/07/20 11:58:10;;;;;;;9.45;4.20;;;10.30;54.40;;;;;;4952558;28;20118;-67
2023/07/20 12:00:40;;;;;;;12.75;4.05;;;10.30;55.70;;;;;;4948308;28;20062;-67
2023/07/20 12:03:08;;;;;;;7.45;3.20;;;10.10;56.50;;;;;;4952848;28;20035;-68
2023/07/20 12:05:35;;;;;;;7.43;3.42;;;10.00;56.20;;;;;;4948369;28;20095;-67
2023/07/20 12:08:03;;;;;;;8.77;3.33;;;10.00;56.70;;;;;;4950078;28;20038;-68
2023/07/20 12:10:31;;;;;;;6.28;2.88;;;10.40;55.00;;;;;;4945075;28;20027;-67
2023/07/20 12:13:04;;;;;;;11.57;4.03;;;10.60;54.70;;;;;;4947518;28;20548;-68
2023/07/20 12:15:32;;;;;;;9.63;3.30;;;10.60;55.20;;;;;;4949966;28;20039;-68
2023/07/20 12:18:03;;;;;;;6.78;3.25;;;10.30;55.60;;;;;;4944249;28;20027;-69
2023/07/20 12:20:38;;;;;;;7.45;3.00;;;10.10;56.10;;;;;;4948178;28;20030;-68
2023/07/20 12:23:13;;;;;;;9.20;3.60;;;10.00;57.40;;;;;;4943864;28;20769;-66
2023/07/20 12:25:46;;;;;;;7.13;3.40;;;9.80;57.90;;;;;;4941887;28;20488;-66
2023/07/20 12:28:16;;;;;;;11.07;3.40;;;9.80;58.00;;;;;;4954010;28;20082;-68
2023/07/20 12:30:45;;;;;;;5.32;3.13;;;9.60;59.50;;;;;;4937490;28;20075;-68
2023/07/20 12:33:17;;;;;;;8.23;3.40;;;9.40;60.60;;;;;;4947456;28;20397;-68
2023/07/20 12:35:44;;;;;;;8.25;3.78;;;9.30;60.90;;;;;;4950268;28;20059;-68
2023/07/20 12:38:12;;;;;;;7.78;2.90;;;9.20;61.50;;;;;;4948963;28;20058;-68
2023/07/20 12:40:38;;;;;;;;;;;9.20;61.80;;;;;;4948517;28;20467;-67
2023/07/20 12:43:06;;;;;;;5.10;2.80;;;9.30;61.80;;;;;;4954722;28;19917;-67
2023/07/20 12:45:34;;;;;;;6.70;3.00;;;9.20;60.70;;;;;;4954004;28;20035;-67
2023/07/20 12:48:01;;;;;;;6.93;3.33;;;9.10;61.00;;;;;;4950920;28;20031;-67
2023/07/20 12:50:29;;;;;;;10.18;4.40;;;9.10;61.00;;;;;;4957331;28;20035;-68
2023/07/20 12:52:57;;;;;;;12.20;5.55;;;9.10;60.90;;;;;;4937429;28;20046;-68
2023/07/20 12:55:23;;;;;;;;;;;9.20;60.70;;;;;;4954848;28;20398;-67
2023/07/20 12:57:51;;;;;;;12.00;4.43;;;9.10;60.70;;;;;;4951886;28;19930;-69